Terminal Aerodrome Forecast
Issued by NWS Knoxville/Tri Cities, TN

Home | Current Version | Previous Version | Text Only | Print | Product List | Glossary On
Versions: 1 2 3 4 5 6 7 8 9 10 11 12 13 14 15
000
FTUS44 KMRX 162325
TAFTRI
TAF
KTRI 162325Z 1700/1724 28006KT 2SM -SN BR OVC015
     FM170600 30007KT 5SM -SN BR OVC025
     FM171000 30007KT P6SM BKN035
     FM171600 32008KT P6SM BKN250=

USA.gov is the U.S. government's official web portal to all federal, state and local government web resources and services.